Time;durP1;ratioP1;P1;durP2;ratioP2;P2;SDS_P1;SDS_P2;PMS_P1;PMS_P2;Temp;Humidity;BMP_temperature;BMP_pressure;BME280_temperature;BME280_humidity;BME280_pressure;Samples;Min_cycle;Max_cycle;Signal;HPM_P1;HPM_P2
2023/05/31 00:00:13;;;;;;;1.20;1.20;;;;;;;14.74;100.00;96952.28;5087531;28;20082;-60
2023/05/31 00:02:40;;;;;;;1.40;1.40;;;;;;;15.39;100.00;97025.16;5086985;28;20145;-61
2023/05/31 00:05:07;;;;;;;1.25;1.25;;;;;;;15.38;100.00;97026.34;5085572;28;20062;-60
2023/05/31 00:07:34;;;;;;;1.50;1.50;;;;;;;15.35;100.00;97031.91;5086844;28;20051;-61
2023/05/31 00:10:01;;;;;;;1.30;1.30;;;;;;;15.34;100.00;97025.53;5086981;28;20050;-60
2023/05/31 00:12:28;;;;;;;1.30;1.30;;;;;;;15.34;100.00;97021.94;5085344;28;20549;-60
2023/05/31 00:14:54;;;;;;;1.20;1.20;;;;;;;15.30;100.00;97024.72;5086944;28;20059;-60
2023/05/31 00:17:21;;;;;;;1.20;1.20;;;;;;;15.25;100.00;97021.56;5086868;28;20055;-61
2023/05/31 00:19:51;;;;;;;1.30;1.30;;;;;;;15.04;100.00;97025.97;5087469;28;20065;-60
2023/05/31 00:22:17;;;;;;;1.20;1.20;;;;;;;15.18;100.00;97022.38;5085315;28;20127;-60
2023/05/31 00:24:44;;;;;;;1.20;1.20;;;;;;;15.07;100.00;97032.72;5086886;28;20057;-60
2023/05/31 00:27:11;;;;;;;1.10;1.10;;;;;;;15.09;100.00;97025.53;5086145;28;20054;-60
2023/05/31 00:29:37;;;;;;;1.30;1.30;;;;;;;15.08;100.00;97028.75;5086458;28;20135;-62
2023/05/31 00:32:04;;;;;;;1.23;1.23;;;;;;;14.35;100.00;96923.63;5085007;28;20055;-60
2023/05/31 00:34:31;;;;;;;1.20;1.20;;;;;;;15.01;100.00;97017.59;5085096;28;20044;-59
2023/05/31 00:36:58;;;;;;;1.20;1.20;;;;;;;14.96;100.00;97015.22;5084755;28;20052;-60
2023/05/31 00:39:25;;;;;;;1.20;1.20;;;;;;;14.95;100.00;97033.16;5086417;28;20438;-59
2023/05/31 00:41:51;;;;;;;1.40;1.40;;;;;;;14.96;100.00;97013.22;5086403;28;20055;-60
2023/05/31 00:44:18;;;;;;;1.38;1.38;;;;;;;15.10;100.00;97021.59;5085757;28;20491;-60
2023/05/31 00:46:45;;;;;;;1.35;1.35;;;;;;;15.03;100.00;97004.84;5085053;28;20130;-60
2023/05/31 00:49:12;;;;;;;1.15;1.15;;;;;;;14.91;100.00;96979.34;5084476;28;20050;-60
2023/05/31 00:51:39;;;;;;;1.27;1.27;;;;;;;15.37;100.00;97033.09;5085684;28;20048;-60
2023/05/31 00:54:06;;;;;;;1.20;1.20;;;;;;;15.36;100.00;97028.72;5084271;28;20051;-60
2023/05/31 00:56:34;;;;;;;1.25;1.25;;;;;;;15.30;100.00;97023.94;5085652;28;20052;-60
2023/05/31 00:59:01;;;;;;;1.20;1.20;;;;;;;15.13;100.00;97026.34;5091653;28;20118;-60
2023/05/31 01:01:32;;;;;;;1.20;1.20;;;;;;;14.13;100.00;96877.41;5106055;28;20562;-61
2023/05/31 01:04:01;;;;;;;1.33;1.33;;;;;;;15.05;100.00;97029.53;5106373;28;20044;-60
2023/05/31 01:06:35;;;;;;;1.13;1.13;;;;;;;15.07;100.00;97021.56;5106334;28;20043;-61
2023/05/31 01:09:04;;;;;;;1.30;1.30;;;;;;;14.87;100.00;97000.88;5105994;28;20059;-59
2023/05/31 01:11:36;;;;;;;1.30;1.30;;;;;;;14.97;100.00;97016.78;5106022;28;20056;-59
2023/05/31 01:14:28;;;;;;;1.20;1.20;;;;;;;14.99;100.00;97022.78;5106060;27;20576;-59
2023/05/31 01:17:04;;;;;;;1.30;1.30;;;;;;;14.48;100.00;96947.13;5106006;27;20048;-60
2023/05/31 01:19:54;;;;;;;1.23;1.23;;;;;;;14.86;100.00;97016.81;5106135;28;20471;-60
2023/05/31 01:22:50;;;;;;;1.15;1.15;;;;;;;14.88;100.00;97027.56;5105625;28;20044;-60
2023/05/31 01:25:34;;;;;;;1.10;1.10;;;;;;;14.88;100.00;97024.78;5105852;28;20062;-60
2023/05/31 01:28:04;;;;;;;1.40;1.40;;;;;;;14.79;100.00;97016.00;5104231;28;20054;-61
2023/05/31 01:30:32;;;;;;;1.30;1.30;;;;;;;14.94;100.00;97023.16;5105968;27;20411;-59
2023/05/31 01:33:00;;;;;;;1.20;1.20;;;;;;;14.76;100.00;97011.25;5105737;28;20055;-59
2023/05/31 01:35:27;;;;;;;1.20;1.20;;;;;;;14.87;100.00;97025.97;5087938;28;20491;-60
2023/05/31 01:37:53;;;;;;;1.30;1.30;;;;;;;14.57;100.00;96981.78;5069023;28;20592;-59
2023/05/31 01:40:20;;;;;;;1.30;1.30;;;;;;;14.85;100.00;97020.00;5064993;28;20053;-60
2023/05/31 01:42:50;;;;;;;1.20;1.20;;;;;;;14.02;100.00;96893.31;5080046;28;20110;-60
2023/05/31 01:45:18;;;;;;;1.23;1.23;;;;;;;14.95;100.00;97035.94;5064955;28;20063;-61
2023/05/31 01:47:47;;;;;;;1.05;1.05;;;;;;;14.63;100.00;97001.66;5064991;28;20048;-60
2023/05/31 01:50:15;;;;;;;1.23;1.23;;;;;;;14.80;100.00;97029.56;5064468;28;20057;-60
2023/05/31 01:52:42;;;;;;;1.30;1.30;;;;;;;14.83;100.00;97017.59;5064859;28;20526;-59
2023/05/31 01:55:09;;;;;;;1.17;1.17;;;;;;;13.95;100.00;96879.38;5064561;28;20048;-60
2023/05/31 01:57:42;;;;;;;1.30;1.30;;;;;;;14.47;100.00;97021.56;5080320;28;20513;-59
2023/05/31 02:00:12;;;;;;;1.15;1.15;;;;;;;14.54;100.00;97026.38;5064478;28;20044;-60
2023/05/31 02:02:41;;;;;;;1.20;1.20;;;;;;;14.58;100.00;97010.41;5064382;28;20048;-61
2023/05/31 02:05:11;;;;;;;1.10;1.10;;;;;;;14.59;100.00;97023.19;5063817;28;20439;-60
2023/05/31 02:07:40;;;;;;;1.10;1.10;;;;;;;14.32;100.00;96969.00;5064391;28;20091;-60
2023/05/31 02:10:08;;;;;;;1.20;1.20;;;;;;;14.66;100.00;97028.75;5064163;28;20106;-60
2023/05/31 02:12:35;;;;;;;1.25;1.25;;;;;;;14.53;100.00;97008.03;5064383;28;20048;-61
2023/05/31 02:15:03;;;;;;;1.20;1.20;;;;;;;14.51;100.00;97010.44;5064517;28;20475;-60
2023/05/31 02:17:32;;;;;;;1.30;1.30;;;;;;;14.07;100.00;96965.34;5064145;28;20056;-60
2023/05/31 02:19:59;;;;;;;1.20;1.20;;;;;;;14.05;100.00;96951.81;5063981;28;20060;-60
2023/05/31 02:22:26;;;;;;;1.30;1.30;;;;;;;14.57;100.00;97042.28;5063271;28;20053;-60
2023/05/31 02:24:53;;;;;;;1.10;1.10;;;;;;;14.48;100.00;97033.53;5063010;28;20499;-59
2023/05/31 02:27:19;;;;;;;1.20;1.20;;;;;;;14.49;100.00;97029.53;5063027;28;20060;-61
2023/05/31 02:29:46;;;;;;;1.40;1.40;;;;;;;14.18;100.00;96999.59;5062965;28;20052;-60
2023/05/31 02:32:13;;;;;;;1.00;1.00;;;;;;;14.34;100.00;97039.03;5063034;28;20063;-62
2023/05/31 02:34:40;;;;;;;1.17;1.17;;;;;;;13.75;100.00;96972.81;5081878;28;20044;-60
2023/05/31 02:37:06;;;;;;;1.05;1.05;;;;;;;14.15;100.00;97037.38;5104337;28;20476;-60
2023/05/31 02:39:33;;;;;;;1.00;1.00;;;;;;;14.14;100.00;97046.13;5102818;28;20058;-60
2023/05/31 02:42:00;;;;;;;1.20;1.20;;;;;;;14.26;100.00;97051.38;5104383;28;20055;-60
2023/05/31 02:44:27;;;;;;;1.00;1.00;;;;;;;14.25;100.00;97047.00;5104325;28;20545;-60
2023/05/31 02:46:53;;;;;;;1.30;1.30;;;;;;;14.15;100.00;97036.56;5102795;28;20186;-60
2023/05/31 02:49:20;;;;;;;1.17;1.17;;;;;;;14.34;100.00;97055.75;5104282;28;20105;-61
2023/05/31 02:51:47;;;;;;;1.20;1.20;;;;;;;14.40;100.00;97060.56;5103756;28;20083;-61
2023/05/31 02:54:14;;;;;;;1.10;1.10;;;;;;;14.41;100.00;97058.59;5102674;28;20044;-60
2023/05/31 02:56:41;;;;;;;1.13;1.13;;;;;;;14.27;100.00;97039.03;5104051;28;20055;-60
2023/05/31 02:59:07;;;;;;;1.13;1.13;;;;;;;14.40;100.00;97054.97;5102685;28;20506;-61
2023/05/31 03:01:34;;;;;;;1.13;1.13;;;;;;;14.49;100.00;97049.03;5103973;28;20490;-59
2023/05/31 03:04:01;;;;;;;1.20;1.20;;;;;;;14.44;100.00;97055.00;5103905;28;20147;-60
2023/05/31 03:06:28;;;;;;;1.20;1.20;;;;;;;14.33;100.00;97020.75;5103866;28;20060;-59
2023/05/31 03:08:55;;;;;;;1.23;1.23;;;;;;;14.57;100.00;97064.59;5103786;28;20047;-59
2023/05/31 03:11:21;;;;;;;1.20;1.20;;;;;;;14.56;100.00;97057.41;5107008;28;20074;-60
2023/05/31 03:13:48;;;;;;;1.27;1.27;;;;;;;14.56;100.00;97062.97;5108050;28;20517;-60
2023/05/31 03:16:16;;;;;;;1.10;1.10;;;;;;;14.63;100.00;97060.22;5107780;27;20051;-60
2023/05/31 03:18:43;;;;;;;1.30;1.30;;;;;;;14.70;100.00;97063.03;5107083;28;20048;-59
2023/05/31 03:21:10;;;;;;;1.20;1.20;;;;;;;14.77;100.00;97057.44;5108302;27;20112;-59
2023/05/31 03:23:37;;;;;;;1.20;1.20;;;;;;;14.71;100.00;97067.41;5107708;28;20469;-59
2023/05/31 03:26:04;;;;;;;1.30;1.30;;;;;;;14.82;100.00;97065.41;5108072;28;20160;-60
2023/05/31 03:28:31;;;;;;;1.20;1.20;;;;;;;14.77;100.00;97051.88;5108174;28;20047;-61
2023/05/31 03:30:57;;;;;;;1.30;1.30;;;;;;;14.82;100.00;97051.47;5107733;28;20055;-60
2023/05/31 03:33:25;;;;;;;1.30;1.30;;;;;;;14.94;100.00;97062.22;5107988;28;20065;-60
2023/05/31 03:35:51;;;;;;;1.23;1.23;;;;;;;14.88;100.00;97063.81;5088579;28;20058;-60
2023/05/31 03:38:18;;;;;;;1.20;1.20;;;;;;;14.43;100.00;97019.97;5087321;28;20601;-61
2023/05/31 03:40:45;;;;;;;1.25;1.25;;;;;;;14.64;100.00;97019.97;5087082;28;20135;-60
2023/05/31 03:43:12;;;;;;;1.40;1.40;;;;;;;15.16;100.00;97074.97;5085729;28;20060;-59
2023/05/31 03:45:39;;;;;;;1.23;1.23;;;;;;;15.34;100.00;97081.34;5087450;28;20538;-60
2023/05/31 03:48:05;;;;;;;1.30;1.30;;;;;;;15.39;100.00;97078.19;5085771;28;20074;-59
2023/05/31 03:50:32;;;;;;;1.30;1.30;;;;;;;15.43;100.00;97092.16;5087088;28;20124;-60
2023/05/31 03:52:59;;;;;;;1.40;1.40;;;;;;;15.55;100.00;97080.56;5086015;28;20619;-60
2023/05/31 03:55:26;;;;;;;1.50;1.50;;;;;;;15.55;100.00;97075.78;5085673;28;20158;-60
2023/05/31 03:57:52;;;;;;;1.40;1.40;;;;;;;15.60;100.00;97078.13;5087032;28;20158;-59
2023/05/31 04:00:20;;;;;;;1.38;1.38;;;;;;;15.82;100.00;97085.25;5086965;28;20059;-61
2023/05/31 04:02:47;;;;;;;1.33;1.33;;;;;;;15.50;100.00;97023.13;5085713;28;20058;-60
2023/05/31 04:05:30;;;;;;;1.60;1.60;;;;;;;15.96;99.69;97065.69;5087131;28;20138;-60
2023/05/31 04:07:57;;;;;;;1.40;1.40;;;;;;;15.77;99.64;97029.84;5086779;28;20227;-60
2023/05/31 04:10:24;;;;;;;1.40;1.40;;;;;;;16.08;99.07;97068.03;5086797;28;20044;-60
2023/05/31 04:12:50;;;;;;;1.50;1.50;;;;;;;16.06;99.50;97036.88;5085444;28;20371;-59
2023/05/31 04:15:17;;;;;;;1.40;1.40;;;;;;;16.55;98.87;97089.78;5086496;28;20562;-60
2023/05/31 04:17:45;;;;;;;1.40;1.40;;;;;;;16.63;96.26;97088.53;5086965;28;20490;-60
2023/05/31 04:20:12;;;;;;;1.58;1.58;;;;;;;16.15;96.07;97020.50;5086462;28;20736;-60
2023/05/31 04:22:39;;;;;;;1.48;1.48;;;;;;;16.26;96.68;97010.06;5086421;28;20080;-60
2023/05/31 04:25:06;;;;;;;1.63;1.63;;;;;;;16.89;97.33;97080.78;5086875;28;20055;-62
2023/05/31 04:27:33;;;;;;;1.70;1.70;;;;;;;16.65;96.20;97043.38;5085265;28;20052;-62
2023/05/31 04:30:00;;;;;;;1.50;1.50;;;;;;;17.08;94.20;97085.84;5087095;28;20052;-60
2023/05/31 04:32:27;;;;;;;1.60;1.60;;;;;;;17.16;94.67;97096.56;5086098;28;20048;-58
2023/05/31 04:34:57;;;;;;;1.60;1.60;;;;;;;17.40;93.34;97100.38;5093837;28;20048;-58
2023/05/31 04:37:29;;;;;;;1.45;1.45;;;;;;;17.55;91.77;97094.25;5104916;28;20047;-61
2023/05/31 04:39:59;;;;;;;1.45;1.45;;;;;;;17.70;90.36;97098.50;5106811;28;20051;-60
2023/05/31 04:42:26;;;;;;;1.50;1.50;;;;;;;17.79;89.94;97106.44;5105883;28;20051;-59
2023/05/31 04:44:58;;;;;;;1.33;1.33;;;;;;;17.92;88.48;97099.09;5106487;28;20048;-60
2023/05/31 04:47:27;;;;;;;1.70;1.70;;;;;;;17.97;88.89;97101.44;5086940;28;20067;-59
2023/05/31 04:49:56;;;;;;;1.80;1.80;;;;;;;17.93;88.91;97089.47;5073274;28;20048;-60
2023/05/31 04:52:29;;;;;;;1.63;1.63;;;;;;;18.10;88.65;97103.28;5065452;28;20311;-59
2023/05/31 04:54:56;;;;;;;1.65;1.65;;;;;;;17.87;88.97;97058.31;5065946;28;20049;-59
2023/05/31 04:57:23;;;;;;;1.77;1.77;;;;;;;17.91;90.44;97103.09;5065175;28;20080;-58
2023/05/31 04:59:50;;;;;;;1.60;1.60;;;;;;;17.94;92.05;97096.69;5066059;28;20058;-58
2023/05/31 05:02:18;;;;;;;1.40;1.40;;;;;;;17.38;90.84;97015.97;5065344;28;20067;-58
2023/05/31 05:04:45;;;;;;;1.55;1.55;;;;;;;17.40;92.48;97033.16;5066129;28;20060;-59
2023/05/31 05:07:11;;;;;;;1.70;1.70;;;;;;;18.12;91.88;97116.88;5065092;28;20063;-60
2023/05/31 05:09:38;;;;;;;1.80;1.80;;;;;;;18.33;91.07;97119.44;5065616;28;20060;-60
2023/05/31 05:12:05;;;;;;;1.80;1.80;;;;;;;18.33;91.81;97113.84;5063543;28;20044;-59
2023/05/31 05:14:32;;;;;;;1.70;1.70;;;;;;;18.24;92.06;97093.91;5063821;28;20048;-58
2023/05/31 05:16:59;;;;;;;1.60;1.60;;;;;;;18.42;91.18;97093.72;5046193;28;20965;-61
2023/05/31 05:19:26;;;;;;;1.65;1.65;;;;;;;18.52;91.35;97127.25;5069812;28;20070;-58
2023/05/31 05:21:54;;;;;;;1.90;1.90;;;;;;;17.91;91.21;97019.00;5093520;28;20058;-66
2023/05/31 05:24:20;;;;;;;1.52;1.52;;;;;;;18.50;90.41;97107.22;5084556;28;20058;-59
2023/05/31 05:26:47;;;;;;;1.80;1.80;;;;;;;18.98;89.06;97130.22;5089337;28;20114;-71
2023/05/31 05:29:14;;;;;;;1.63;1.63;;;;;;;19.03;89.18;97135.34;5088999;28;20052;-59
2023/05/31 05:31:40;;;;;;;1.75;1.75;;;;;;;19.06;88.26;97128.88;5084447;28;20048;-60
2023/05/31 05:34:07;;;;;;;1.80;1.80;;;;;;;18.91;87.71;97082.59;5085176;28;20064;-59
2023/05/31 05:36:34;;;;;;;1.77;1.77;;;;;;;19.34;87.93;97122.06;5084675;28;20056;-62
2023/05/31 05:39:04;;;;;;;2.00;2.00;;;;;;;19.11;87.40;97103.13;5085262;28;20048;-62
2023/05/31 05:41:31;;;;;;;1.90;1.90;;;;;;;18.97;87.47;97064.06;5085026;28;20112;-60
2023/05/31 05:43:57;;;;;;;1.80;1.80;;;;;;;19.40;87.12;97098.69;5084691;28;20056;-59
2023/05/31 05:46:24;;;;;;;1.92;1.92;;;;;;;19.78;85.93;97132.16;5084702;28;20503;-59
2023/05/31 05:48:51;;;;;;;1.92;1.92;;;;;;;19.95;85.00;97133.88;5083193;28;20059;-59
2023/05/31 05:51:17;;;;;;;1.83;1.83;;;;;;;20.07;85.31;97141.69;5085164;28;20067;-62
2023/05/31 05:53:44;;;;;;;2.08;2.08;;;;;;;20.25;85.20;97140.16;5083583;28;20132;-60
2023/05/31 05:56:17;;;;;;;2.00;2.00;;;;;;;19.72;85.56;97047.53;5083330;28;20421;-59
2023/05/31 05:58:46;;;;;;;;;;;;;;;20.45;85.41;97129.72;5085411;28;20062;-62
2023/05/31 06:01:18;;;;;;;1.90;1.90;;;;;;;20.48;84.13;97144.94;5082902;28;19981;-62
2023/05/31 06:03:47;;;;;;;1.95;1.95;;;;;;;20.57;82.74;97142.31;5084823;28;20062;-60
2023/05/31 06:06:14;;;;;;;1.90;1.90;;;;;;;20.74;82.20;97130.69;5083103;28;20075;-62
2023/05/31 06:08:41;;;;;;;2.08;2.08;;;;;;;21.12;80.63;97139.53;5084363;28;20056;-60
2023/05/31 06:11:07;;;;;;;2.00;2.00;;;;;;;21.16;80.61;97134.63;5084828;28;20063;-61
2023/05/31 06:13:34;;;;;;;2.20;2.20;;;;;;;21.14;78.44;97103.28;5084616;28;20051;-59
2023/05/31 06:16:05;;;;;;;2.20;2.20;;;;;;;21.50;76.99;97143.47;5082913;28;20079;-60
2023/05/31 06:18:31;;;;;;;2.30;2.30;;;;;;;21.55;76.85;97134.50;5084387;28;20044;-61
2023/05/31 06:20:58;;;;;;;2.30;2.30;;;;;;;21.49;77.14;97093.97;5082747;28;20498;-58
2023/05/31 06:23:26;;;;;;;2.22;2.22;;;;;;;21.73;76.69;97117.94;5089150;28;20040;-61
2023/05/31 06:25:53;;;;;;;2.22;2.22;;;;;;;21.60;76.18;97080.41;5088327;28;20406;-65
2023/05/31 06:28:19;;;;;;;2.20;2.20;;;;;;;22.12;75.58;97129.00;5102891;28;20070;-61
2023/05/31 06:30:46;;;;;;;2.53;2.42;;;;;;;22.32;75.20;97132.47;5099954;28;20131;-58
2023/05/31 06:33:13;;;;;;;2.70;2.60;;;;;;;21.77;75.31;97048.16;5102684;28;20536;-65
2023/05/31 06:35:42;;;;;;;2.50;2.40;;;;;;;22.66;74.79;97133.97;5085213;28;20078;-60
2023/05/31 06:38:15;;;;;;;2.63;2.53;;;;;;;22.77;71.88;97128.81;5082490;28;20098;-64
2023/05/31 06:40:43;;;;;;;2.47;2.40;;;;;;;22.99;70.73;97138.22;5082890;28;20060;-64
2023/05/31 06:43:10;;;;;;;2.97;2.88;;;;;;;23.02;71.78;97137.31;5082007;28;20062;-59
2023/05/31 06:45:41;;;;;;;2.80;2.70;;;;;;;22.86;69.81;97075.28;5080635;28;20135;-59
2023/05/31 06:48:11;;;;;;;3.03;2.92;;;;;;;23.36;68.58;97137.50;5081282;28;20047;-61
2023/05/31 06:50:37;;;;;;;2.88;2.78;;;;;;;23.62;68.46;97127.75;5081831;28;20048;-60
2023/05/31 06:53:05;;;;;;;2.92;2.83;;;;;;;23.55;66.57;97108.22;5082087;28;20123;-64
2023/05/31 06:55:32;;;;;;;2.67;2.58;;;;;;;23.66;63.47;97111.47;5080690;28;20040;-63
2023/05/31 06:57:59;;;;;;;2.97;2.88;;;;;;;24.12;60.84;97130.53;5081177;28;20044;-59
2023/05/31 07:00:25;;;;;;;3.03;2.92;;;;;;;24.23;59.91;97145.13;5090289;28;20047;-63
2023/05/31 07:02:52;;;;;;;3.30;3.20;;;;;;;24.21;56.32;97102.31;5099490;28;20517;-60
2023/05/31 07:05:19;;;;;;;3.00;2.90;;;;;;;24.29;55.77;97114.97;5104176;28;20052;-62
2023/05/31 07:07:46;;;;;;;3.40;3.30;;;;;;;24.53;55.53;97124.56;5090352;28;20054;-61
2023/05/31 07:10:13;;;;;;;3.35;3.25;;;;;;;24.38;56.02;97086.72;5084881;28;20047;-59
2023/05/31 07:12:39;;;;;;;3.80;3.70;;;;;;;24.61;55.28;97123.06;5097316;28;20429;-61
2023/05/31 07:15:08;;;;;;;3.00;2.90;;;;;;;24.41;55.54;97118.97;5090777;28;20056;-61
2023/05/31 07:17:35;;;;;;;3.00;2.90;;;;;;;24.60;56.68;97121.50;5102445;28;20082;-63
2023/05/31 07:20:04;;;;;;;3.50;3.40;;;;;;;24.72;56.99;97120.66;5090474;28;20465;-60
2023/05/31 07:22:31;;;;;;;3.30;3.20;;;;;;;24.75;58.76;97119.75;5095240;28;20582;-59
2023/05/31 07:24:58;;;;;;;3.40;3.30;;;;;;;24.83;58.65;97126.72;5086008;28;20418;-59
2023/05/31 07:27:25;;;;;;;2.90;2.80;;;;;;;24.93;58.49;97119.06;5097654;28;20383;-64
2023/05/31 07:29:51;;;;;;;3.42;3.33;;;;;;;24.98;59.35;97116.44;5101493;28;20060;-61
2023/05/31 07:32:18;;;;;;;3.40;3.30;;;;;;;24.57;59.75;97125.25;5092842;28;20143;-59
2023/05/31 07:34:45;;;;;;;3.22;3.13;;;;;;;24.53;60.29;97113.25;5083462;28;20040;-59
2023/05/31 07:37:30;;;;;;;3.38;3.28;;;;;;;24.08;60.90;97084.56;5082536;28;20055;-64
2023/05/31 07:39:56;;;;;;;3.25;3.15;;;;;;;24.86;61.46;97108.81;5082859;28;20079;-63
2023/05/31 07:42:23;;;;;;;3.17;3.08;;;;;;;24.93;60.12;97114.19;5082850;28;20130;-64
2023/05/31 07:44:50;;;;;;;3.50;3.40;;;;;;;25.03;60.54;97073.31;5083333;28;20044;-64
2023/05/31 07:47:19;;;;;;;3.58;3.47;;;;;;;25.65;55.93;97107.28;5083234;28;20048;-61
2023/05/31 07:49:46;;;;;;;3.53;3.42;;;;;;;25.79;57.11;97106.69;5083111;28;20117;-59
2023/05/31 07:52:13;;;;;;;3.47;3.38;;;;;;;25.93;55.77;97111.78;5082646;28;20054;-60
2023/05/31 07:54:39;;;;;;;3.53;3.42;;;;;;;24.37;54.27;96867.09;5083150;28;20052;-58
2023/05/31 07:57:06;;;;;;;3.80;3.70;;;;;;;25.93;57.14;97120.28;5085605;28;20465;-64
2023/05/31 07:59:33;;;;;;;3.60;3.50;;;;;;;26.14;52.93;97106.03;5085648;28;20075;-63
2023/05/31 08:02:00;;;;;;;3.90;3.80;;;;;;;26.19;51.84;97107.44;5085187;28;20533;-58
2023/05/31 08:04:26;;;;;;;3.60;3.50;;;;;;;25.87;53.71;97073.91;5086132;28;20048;-62
2023/05/31 08:06:53;;;;;;;3.70;3.60;;;;;;;25.61;55.28;97058.44;5087884;28;20052;-60
2023/05/31 08:09:20;;;;;;;3.78;3.67;;;;;;;26.02;54.86;97109.00;5092310;28;20052;-59
2023/05/31 08:11:47;;;;;;;3.20;3.10;;;;;;;26.17;55.60;97115.63;5090919;28;20276;-61
2023/05/31 08:14:14;;;;;;;3.40;3.30;;;;;;;26.35;51.75;97112.81;5088039;28;20112;-61
2023/05/31 08:16:41;;;;;;;3.10;3.00;;;;;;;25.31;52.32;97097.69;5100276;28;20052;-61
2023/05/31 08:19:07;;;;;;;3.58;3.47;;;;;;;25.90;51.96;97101.34;5085821;28;20050;-60
2023/05/31 08:21:36;;;;;;;3.50;3.40;;;;;;;26.27;47.69;97103.03;5085475;28;20245;-61
2023/05/31 08:24:05;;;;;;;3.90;3.80;;;;;;;26.46;48.09;97094.00;5085091;28;20052;-61
2023/05/31 08:26:33;;;;;;;3.72;3.63;;;;;;;26.67;46.29;97097.97;5082758;28;20090;-60
2023/05/31 08:29:00;;;;;;;4.05;3.95;;;;;;;26.57;44.77;97088.63;5084538;28;20048;-61
2023/05/31 08:31:26;;;;;;;3.50;3.40;;;;;;;26.48;41.99;97059.44;5100120;28;20052;-61
2023/05/31 08:33:55;;;;;;;3.58;3.47;;;;;;;26.66;43.85;97102.09;5084549;28;20101;-61
2023/05/31 08:36:22;;;;;;;3.95;3.85;;;;;;;26.56;45.89;97086.28;5084540;28;20569;-60
2023/05/31 08:38:49;;;;;;;3.80;3.70;;;;;;;26.99;46.23;97108.66;5085312;28;20048;-59
2023/05/31 08:41:18;;;;;;;3.90;3.80;;;;;;;26.86;46.86;97102.38;5085889;28;20128;-61
2023/05/31 08:43:48;;;;;;;3.85;3.75;;;;;;;26.99;44.80;97097.28;5084723;28;20056;-61
2023/05/31 08:46:15;;;;;;;4.05;3.95;;;;;;;26.98;44.50;97090.03;5085798;28;20043;-63
2023/05/31 08:48:59;;;;;;;3.90;3.80;;;;;;;26.98;44.76;97084.34;5085860;28;20568;-61
2023/05/31 08:51:26;;;;;;;3.90;3.80;;;;;;;26.92;43.10;97091.94;5085679;28;20048;-61
2023/05/31 08:53:54;;;;;;;3.88;3.78;;;;;;;27.19;42.77;97082.56;5085733;28;20298;-61
2023/05/31 08:56:21;;;;;;;4.03;3.92;;;;;;;27.22;42.11;97059.59;5085774;28;20048;-60
2023/05/31 08:58:49;;;;;;;3.83;3.72;;;;;;;27.50;41.99;97086.72;5084343;28;20048;-61
2023/05/31 09:01:20;;;;;;;4.18;4.07;;;;;;;27.32;41.31;96994.94;5085049;28;20134;-60
2023/05/31 09:03:47;;;;;;;4.13;4.03;;;;;;;27.49;41.46;97028.22;5085972;28;20121;-60
2023/05/31 09:06:13;;;;;;;3.92;3.83;;;;;;;27.77;39.62;97032.44;5085258;28;20048;-61
2023/05/31 09:08:41;;;;;;;4.10;4.00;;;;;;;28.12;41.32;97067.69;5084989;28;20052;-60
2023/05/31 09:11:09;;;;;;;4.10;4.00;;;;;;;28.20;42.66;97053.09;5085853;28;20056;-60
2023/05/31 09:13:36;;;;;;;3.95;3.85;;;;;;;28.15;41.57;97041.06;5086051;28;20056;-61
2023/05/31 09:16:03;;;;;;;3.88;3.78;;;;;;;28.17;41.80;97060.53;5083746;28;20054;-61
2023/05/31 09:18:36;;;;;;;3.95;3.85;;;;;;;28.18;41.48;97031.53;5085707;28;20058;-60
2023/05/31 09:21:12;;;;;;;4.32;4.22;;;;;;;28.38;41.13;97052.91;5100781;28;20058;-62
2023/05/31 09:23:59;;;;;;;4.25;4.15;;;;;;;28.41;40.37;97057.63;5084178;28;20048;-61
2023/05/31 09:26:28;;;;;;;4.20;4.10;;;;;;;28.40;41.36;97056.88;5083318;28;20396;-59
2023/05/31 09:28:55;;;;;;;4.10;4.00;;;;;;;28.32;40.85;97043.47;5085288;28;20056;-60
2023/05/31 09:31:22;;;;;;;3.90;3.80;;;;;;;27.77;41.83;97055.22;5084121;28;20588;-61
2023/05/31 09:33:51;;;;;;;3.92;3.83;;;;;;;28.06;42.05;97049.69;5100282;28;20123;-61
2023/05/31 09:36:28;;;;;;;3.88;3.78;;;;;;;28.17;41.15;97037.72;5094075;28;20048;-60
2023/05/31 09:39:04;;;;;;;4.40;4.30;;;;;;;28.28;40.34;97037.97;5104162;28;20048;-61
2023/05/31 09:41:32;;;;;;;4.05;3.95;;;;;;;27.36;40.37;97036.16;5105227;28;20055;-60
2023/05/31 09:43:59;;;;;;;4.32;4.22;;;;;;;27.34;42.35;97038.72;5105620;28;20142;-60
2023/05/31 09:46:27;;;;;;;4.20;4.10;;;;;;;27.68;41.42;97035.38;5103674;28;20503;-61
2023/05/31 09:49:05;;;;;;;4.00;3.90;;;;;;;27.37;41.61;97031.28;5105298;27;20047;-61
2023/05/31 09:51:33;;;;;;;3.67;3.58;;;;;;;27.29;41.65;97030.84;5104680;28;20530;-61
2023/05/31 09:54:06;;;;;;;3.88;3.78;;;;;;;27.75;41.75;97028.53;5105124;28;20585;-61
2023/05/31 09:56:37;;;;;;;3.97;3.88;;;;;;;28.42;40.09;97019.31;5103304;28;20054;-60
2023/05/31 09:59:05;;;;;;;3.47;3.38;;;;;;;28.48;40.38;97023.88;5105295;28;20050;-61
2023/05/31 10:01:33;;;;;;;3.95;3.85;;;;;;;28.97;40.19;97020.34;5104486;28;20062;-62
2023/05/31 10:04:05;;;;;;;4.30;4.20;;;;;;;28.97;39.92;97021.16;5105020;28;20448;-62
2023/05/31 10:06:36;;;;;;;4.28;4.18;;;;;;;28.31;38.86;96979.22;5102752;28;20043;-60
2023/05/31 10:09:10;;;;;;;4.25;4.15;;;;;;;28.82;39.04;97016.72;5103723;28;20136;-62
2023/05/31 10:11:41;;;;;;;4.13;4.03;;;;;;;27.17;40.52;97011.13;5103124;28;20047;-60
2023/05/31 10:14:15;;;;;;;3.63;3.53;;;;;;;26.81;40.84;97029.09;5104765;28;20047;-61
2023/05/31 10:16:48;;;;;;;4.13;4.03;;;;;;;26.93;41.03;97030.97;5104515;28;20058;-61
2023/05/31 10:19:48;;;;;;;3.72;3.63;;;;;;;27.27;42.21;97027.69;5104576;28;20047;-61
2023/05/31 10:22:17;;;;;;;3.72;3.63;;;;;;;26.15;42.01;96964.78;5099032;28;20437;-62
2023/05/31 10:24:54;;;;;;;3.80;3.70;;;;;;;26.80;42.24;97027.53;5103919;28;20317;-63
2023/05/31 10:27:23;;;;;;;3.90;3.80;;;;;;;27.17;43.42;97017.59;5103366;28;20051;-61
2023/05/31 10:29:56;;;;;;;3.58;3.47;;;;;;;28.27;39.84;97018.50;5103636;28;20055;-60
2023/05/31 10:32:25;;;;;;;4.28;4.18;;;;;;;28.75;39.59;97025.69;5103672;28;20048;-60
2023/05/31 10:34:53;;;;;;;4.50;4.40;;;;;;;29.47;38.03;97013.41;5104017;28;20096;-59
2023/05/31 10:37:21;;;;;;;4.18;4.07;;;;;;;29.87;36.77;97024.91;5103865;28;20062;-60
2023/05/31 10:40:10;;;;;;;4.45;4.35;;;;;;;29.94;36.96;97007.31;5104677;28;20047;-60
2023/05/31 10:42:59;;;;;;;4.57;4.47;;;;;;;30.05;37.19;97006.72;5103933;27;20059;-59
2023/05/31 10:45:35;;;;;;;4.50;4.40;;;;;;;29.99;36.57;97005.84;5104265;28;20135;-60
2023/05/31 10:48:20;;;;;;;4.07;3.97;;;;;;;30.01;35.07;96966.13;5104229;28;20264;-61
2023/05/31 10:50:58;;;;;;;4.72;4.63;;;;;;;29.94;36.11;97001.63;5104439;28;20126;-61
2023/05/31 10:53:37;;;;;;;4.60;4.50;;;;;;;30.08;38.34;96980.75;5100834;28;20101;-60
2023/05/31 10:56:11;;;;;;;4.18;4.07;;;;;;;30.10;36.91;96960.28;5084367;28;20147;-60
2023/05/31 10:58:39;;;;;;;4.68;4.57;;;;;;;30.36;36.50;96981.09;5084710;28;20074;-60
2023/05/31 11:01:24;;;;;;;4.30;4.20;;;;;;;30.46;36.06;96971.09;5084269;28;20135;-62
2023/05/31 11:03:52;;;;;;;4.40;4.30;;;;;;;30.39;35.89;96975.16;5084117;28;20052;-61
2023/05/31 11:06:25;;;;;;;4.57;4.47;;;;;;;30.88;35.33;96965.53;5083815;28;20055;-61
2023/05/31 11:09:10;;;;;;;4.63;4.53;;;;;;;29.51;34.35;96705.66;5083933;28;20144;-60
2023/05/31 11:11:37;;;;;;;4.20;4.10;;;;;;;30.35;37.19;96968.09;5094329;28;20054;-61
2023/05/31 11:14:34;;;;;;;4.85;4.75;;;;;;;30.92;37.05;96972.59;5102311;28;20055;-62
2023/05/31 11:17:03;;;;;;;4.82;4.72;;;;;;;31.31;35.67;96961.47;5102516;28;20046;-64
2023/05/31 11:19:32;;;;;;;4.78;4.68;;;;;;;31.80;34.35;96965.91;5102334;28;20425;-63
2023/05/31 11:22:15;;;;;;;4.57;4.47;;;;;;;31.92;33.92;96950.34;5103481;28;20516;-59
2023/05/31 11:24:42;;;;;;;4.20;4.10;;;;;;;31.79;34.75;96959.38;5094777;28;20138;-60
2023/05/31 11:27:12;;;;;;;4.32;4.22;;;;;;;31.52;35.09;96957.16;5087932;28;20540;-62
2023/05/31 11:29:46;;;;;;;4.57;4.47;;;;;;;31.48;35.18;96955.81;5092081;28;20463;-60
2023/05/31 11:32:14;;;;;;;4.43;4.32;;;;;;;29.33;35.90;96688.84;5086779;28;20112;-59
2023/05/31 11:35:00;;;;;;;4.78;4.68;;;;;;;31.28;34.98;96944.50;5099510;28;20048;-60
2023/05/31 11:37:28;;;;;;;4.57;4.47;;;;;;;31.14;34.67;96848.13;5100064;28;20502;-67
2023/05/31 11:39:55;;;;;;;4.43;4.32;;;;;;;31.91;34.35;96928.72;5099231;28;20052;-59